Time;durP1;ratioP1;P1;durP2;ratioP2;P2;SDS_P1;SDS_P2;PMS_P1;PMS_P2;Temp;Humidity;BMP_temperature;BMP_pressure;BME280_temperature;BME280_humidity;BME280_pressure;Samples;Min_cycle;Max_cycle;Signal;HPM_P1;HPM_P2
2023/03/28 00:01:21;;;;;;;9.70;2.58;;;;;;;;;;5095106;28;20045;-86
2023/03/28 00:03:48;;;;;;;6.55;2.55;;;;;;;;;;5096366;28;20524;-86
2023/03/28 00:06:17;;;;;;;7.53;2.53;;;;;;;;;;5096601;28;20588;-86
2023/03/28 00:08:46;;;;;;;5.90;2.20;;;;;;;;;;5093386;28;20037;-86
2023/03/28 00:11:19;;;;;;;5.30;2.20;;;;;;;;;;5097083;28;20032;-86
2023/03/28 00:13:47;;;;;;;9.77;2.58;;;;;;;;;;5093045;28;20049;-87
2023/03/28 00:16:15;;;;;;;10.73;1.85;;;;;;;;;;5094011;28;20361;-87
2023/03/28 00:18:42;;;;;;;8.02;2.13;;;;;;;;;;5094001;28;20049;-86
2023/03/28 00:21:22;;;;;;;4.85;2.05;;;;;;;;;;5095991;28;20068;-86
2023/03/28 00:23:51;;;;;;;6.45;1.95;;;;;;;;;;5097010;28;20046;-86
2023/03/28 00:26:19;;;;;;;4.35;1.77;;;;;;;;;;5088049;28;20074;-86
2023/03/28 00:28:47;;;;;;;5.10;1.58;;;;;;;;;;5087090;28;20477;-86
2023/03/28 00:31:14;;;;;;;8.55;1.67;;;;;;;;;;5089207;28;20501;-85
2023/03/28 00:33:46;;;;;;;7.07;1.88;;;;;;;;;;5081066;28;20044;-83
2023/03/28 00:36:21;;;;;;;6.03;1.27;;;;;;;;;;5084229;28;20054;-83
2023/03/28 00:38:50;;;;;;;5.78;1.50;;;;;;;;;;5085946;28;20044;-83
2023/03/28 00:41:20;;;;;;;11.00;1.77;;;;;;;;;;5087086;28;20050;-83
2023/03/28 00:43:52;;;;;;;11.93;1.90;;;;;;;;;;5089265;28;20044;-83
2023/03/28 00:46:20;;;;;;;6.72;1.67;;;;;;;;;;5088336;28;20044;-84
2023/03/28 00:48:55;;;;;;;7.40;1.83;;;;;;;;;;5088123;28;20048;-83
2023/03/28 00:51:24;;;;;;;6.70;1.77;;;;;;;;;;5091527;28;20052;-85
2023/03/28 00:53:53;;;;;;;6.22;1.70;;;;;;;;;;5089597;28;20048;-83
2023/03/28 00:56:23;;;;;;;4.00;1.50;;;;;;;;;;5088569;28;20056;-83
2023/03/28 00:58:51;;;;;;;8.45;1.90;;;;;;;;;;5088452;28;20053;-83
2023/03/28 01:01:21;;;;;;;3.72;1.50;;;;;;;;;;5089968;28;20044;-84
2023/03/28 01:03:55;;;;;;;8.95;1.85;;;;;;;;;;5088944;28;20045;-85
2023/03/28 01:06:23;;;;;;;;;;;;;;;;;;5089075;28;20041;-84
2023/03/28 01:08:51;;;;;;;4.57;1.63;;;;;;;;;;5090426;28;19942;-83
2023/03/28 01:11:19;;;;;;;2.53;1.40;;;;;;;;;;5090026;28;20048;-84
2023/03/28 01:13:49;;;;;;;7.57;1.63;;;;;;;;;;5091085;28;20056;-84
2023/03/28 01:16:18;;;;;;;8.88;1.73;;;;;;;;;;5091744;28;20050;-83
2023/03/28 01:18:50;;;;;;;5.63;1.38;;;;;;;;;;5092014;28;20090;-84
2023/03/28 01:21:33;;;;;;;9.40;1.60;;;;;;;;;;5091626;28;20048;-85
2023/03/28 01:24:19;;;;;;;14.83;1.97;;;;;;;;;;5091670;28;20048;-84
2023/03/28 01:26:48;;;;;;;2.22;1.10;;;;;;;;;;5091056;28;20052;-85
2023/03/28 01:29:25;;;;;;;11.75;2.03;;;;;;;;;;5089059;28;20080;-84
2023/03/28 01:32:11;;;;;;;7.72;1.48;;;;;;;;;;5086068;28;20483;-83
2023/03/28 01:34:46;;;;;;;6.97;2.00;;;;;;;;;;5085457;28;20060;-83
2023/03/28 01:37:33;;;;;;;4.85;1.75;;;;;;;;;;5085995;28;20060;-83
2023/03/28 01:40:00;;;;;;;5.00;1.50;;;;;;;;;;5086531;28;20048;-83
2023/03/28 01:42:39;;;;;;;6.38;1.20;;;;;;;;;;5091790;28;20044;-83
2023/03/28 01:45:13;;;;;;;7.13;1.35;;;;;;;;;;5089065;28;20071;-83
2023/03/28 01:47:43;;;;;;;16.13;2.38;;;;;;;;;;5088560;28;20178;-83
2023/03/28 01:50:32;;;;;;;7.43;1.50;;;;;;;;;;5089127;28;20486;-83
2023/03/28 01:53:15;;;;;;;7.50;1.50;;;;;;;;;;5088240;28;20513;-84
2023/03/28 01:55:47;;;;;;;7.68;1.85;;;;;;;;;;5092078;22;20044;-78
2023/03/28 01:58:21;;;;;;;7.83;2.10;;;;;;;;;;5075710;28;20045;-80
2023/03/28 02:00:53;;;;;;;8.18;1.38;;;;;;;;;;5074294;28;20053;-77
2023/03/28 02:03:26;;;;;;;10.73;2.25;;;;;;;;;;5074652;28;20080;-81
2023/03/28 02:05:55;;;;;;;6.95;1.80;;;;;;;;;;5076767;28;20087;-81
2023/03/28 02:08:24;;;;;;;5.32;1.33;;;;;;;;;;5077594;28;20045;-79
2023/03/28 02:10:52;;;;;;;7.57;1.10;;;;;;;;;;5077365;28;20126;-79
2023/03/28 02:13:29;;;;;;;4.72;1.15;;;;;;;;;;5077211;28;20044;-78
2023/03/28 02:15:58;;;;;;;8.88;1.83;;;;;;;;;;5075731;28;20558;-79
2023/03/28 02:18:28;;;;;;;11.45;1.83;;;;;;;;;;5075887;28;20461;-79
2023/03/28 02:21:03;;;;;;;10.73;1.60;;;;;;;;;;5077263;28;20575;-79
2023/03/28 02:23:43;;;;;;;9.80;2.10;;;;;;;;;;5076720;28;20055;-81
2023/03/28 02:26:11;;;;;;;7.75;1.73;;;;;;;;;;5076323;28;20493;-82
2023/03/28 02:28:39;;;;;;;10.15;1.45;;;;;;;;;;5076118;28;20084;-81
2023/03/28 02:31:07;;;;;;;8.05;1.65;;;;;;;;;;5075299;28;20503;-79
2023/03/28 02:33:38;;;;;;;14.45;1.80;;;;;;;;;;5075415;28;20445;-82
2023/03/28 02:36:24;;;;;;;9.48;1.48;;;;;;;;;;5076889;28;20094;-81
2023/03/28 02:38:54;;;;;;;11.02;1.58;;;;;;;;;;5076574;28;20095;-79
2023/03/28 02:41:22;;;;;;;6.95;1.33;;;;;;;;;;5078064;28;20559;-79
2023/03/28 02:44:27;;;;;;;13.05;1.90;;;;;;;;;;5075092;28;20123;-78
2023/03/28 02:47:07;;;;;;;12.77;2.22;;;;;;;;;;5053805;28;20128;-80
2023/03/28 02:49:40;;;;;;;9.32;1.75;;;;;;;;;;5037465;28;20133;-80
2023/03/28 02:52:22;;;;;;;13.90;2.35;;;;;;;;;;5060208;28;20044;-79
2023/03/28 02:54:57;;;;;;;10.35;1.52;;;;;;;;;;5075583;28;20064;-80
2023/03/28 02:57:32;;;;;;;13.52;1.65;;;;;;;;;;5074174;28;20478;-80
2023/03/28 03:00:04;;;;;;;10.57;1.60;;;;;;;;;;5075246;28;20127;-79
2023/03/28 03:02:32;;;;;;;9.80;1.60;;;;;;;;;;5073924;28;20051;-80
2023/03/28 03:05:00;;;;;;;10.05;1.27;;;;;;;;;;5075117;28;20044;-79
2023/03/28 03:07:28;;;;;;;11.10;2.72;;;;;;;;;;5074346;28;20517;-80
2023/03/28 03:09:55;;;;;;;10.88;2.17;;;;;;;;;;5074158;28;20040;-80
2023/03/28 03:12:22;;;;;;;16.55;3.72;;;;;;;;;;5076086;28;20075;-80
2023/03/28 03:14:50;;;;;;;8.55;2.45;;;;;;;;;;5075146;28;20586;-80
2023/03/28 03:17:18;;;;;;;8.35;2.10;;;;;;;;;;5073877;28;20051;-79
2023/03/28 03:19:45;;;;;;;6.63;2.00;;;;;;;;;;5074179;28;20052;-79
2023/03/28 03:22:12;;;;;;;14.27;2.58;;;;;;;;;;5073618;28;20076;-79
2023/03/28 03:24:49;;;;;;;10.85;1.52;;;;;;;;;;5073523;28;20499;-80
2023/03/28 03:27:17;;;;;;;8.32;1.23;;;;;;;;;;5073855;28;20041;-79
2023/03/28 03:29:45;;;;;;;3.20;1.10;;;;;;;;;;5074706;28;20127;-80
2023/03/28 03:32:12;;;;;;;13.13;1.60;;;;;;;;;;5074634;28;20517;-80
2023/03/28 03:34:40;;;;;;;7.32;1.35;;;;;;;;;;5074643;28;20484;-79
2023/03/28 03:37:10;;;;;;;11.30;1.40;;;;;;;;;;5073661;28;20056;-80
2023/03/28 03:39:38;;;;;;;3.60;1.00;;;;;;;;;;5075445;28;20120;-80
2023/03/28 03:42:05;;;;;;;21.08;2.30;;;;;;;;;;5076919;28;20055;-81
2023/03/28 03:44:32;;;;;;;13.30;1.50;;;;;;;;;;5077770;28;20106;-80
2023/03/28 03:46:59;;;;;;;6.75;1.48;;;;;;;;;;5076837;28;20045;-80
2023/03/28 03:49:26;;;;;;;5.35;1.30;;;;;;;;;;5074669;28;20055;-79
2023/03/28 03:51:54;;;;;;;10.25;1.67;;;;;;;;;;5075116;28;20052;-80
2023/03/28 03:54:21;;;;;;;9.88;1.63;;;;;;;;;;5074952;28;20053;-80
2023/03/28 03:56:48;;;;;;;11.80;2.03;;;;;;;;;;5075350;28;20044;-80
2023/03/28 03:59:16;;;;;;;1.80;0.88;;;;;;;;;;5074602;28;20052;-80
2023/03/28 04:01:43;;;;;;;5.55;1.25;;;;;;;;;;5076118;28;20055;-79
2023/03/28 04:04:10;;;;;;;10.57;1.40;;;;;;;;;;5074521;28;20048;-79
2023/03/28 04:06:38;;;;;;;10.18;2.65;;;;;;;;;;5073815;28;20044;-79
2023/03/28 04:09:06;;;;;;;9.07;1.65;;;;;;;;;;5072575;28;20135;-79
2023/03/28 04:11:34;;;;;;;6.57;1.58;;;;;;;;;;5074306;28;20465;-79
2023/03/28 04:14:01;;;;;;;12.45;1.50;;;;;;;;;;5072896;28;20045;-79
2023/03/28 04:16:29;;;;;;;8.50;1.20;;;;;;;;;;5073100;28;20545;-80
2023/03/28 04:19:07;;;;;;;8.18;1.65;;;;;;;;;;5072803;28;20048;-79
2023/03/28 04:21:34;;;;;;;12.10;1.92;;;;;;;;;;5073942;28;20055;-81
2023/03/28 04:24:02;;;;;;;11.02;2.30;;;;;;;;;;5072432;28;20067;-80
2023/03/28 04:26:34;;;;;;;7.47;1.65;;;;;;;;;;5073450;28;20090;-81
2023/03/28 04:29:02;;;;;;;8.60;2.08;;;;;;;;;;5072484;28;20128;-80
2023/03/28 04:31:34;;;;;;;10.95;2.47;;;;;;;;;;5073304;28;20048;-81
2023/03/28 04:34:02;;;;;;;7.22;2.03;;;;;;;;;;5072936;28;20048;-81
2023/03/28 04:36:30;;;;;;;7.32;2.20;;;;;;;;;;5074417;28;20048;-78
2023/03/28 04:39:00;;;;;;;10.18;2.30;;;;;;;;;;5073525;28;20094;-80
2023/03/28 04:41:28;;;;;;;12.02;2.40;;;;;;;;;;5073652;28;20483;-80
2023/03/28 04:43:56;;;;;;;9.90;2.00;;;;;;;;;;5072667;28;20103;-80
2023/03/28 04:46:23;;;;;;;10.45;1.70;;;;;;;;;;5073403;28;20055;-79
2023/03/28 04:48:50;;;;;;;12.93;2.13;;;;;;;;;;5071841;28;20048;-80
2023/03/28 04:51:23;;;;;;;12.18;2.08;;;;;;;;;;5072241;28;20052;-79
2023/03/28 04:53:51;;;;;;;19.08;2.03;;;;;;;;;;5071827;28;20106;-79
2023/03/28 04:56:18;;;;;;;11.18;1.83;;;;;;;;;;5073224;28;20523;-79
2023/03/28 04:58:45;;;;;;;10.10;1.80;;;;;;;;;;5072037;28;20131;-79
2023/03/28 05:01:13;;;;;;;6.82;1.50;;;;;;;;;;5071946;28;20048;-79
2023/03/28 05:03:40;;;;;;;10.38;2.17;;;;;;;;;;5071870;28;20078;-79
2023/03/28 05:06:07;;;;;;;12.10;1.40;;;;;;;;;;5071687;28;20487;-81
2023/03/28 05:08:35;;;;;;;15.43;1.75;;;;;;;;;;5073022;28;20056;-80
2023/03/28 05:11:02;;;;;;;7.63;1.48;;;;;;;;;;5071726;28;20051;-80
2023/03/28 05:13:29;;;;;;;11.85;1.70;;;;;;;;;;5071780;28;20582;-80
2023/03/28 05:15:56;;;;;;;10.70;1.73;;;;;;;;;;5073181;28;20135;-79
2023/03/28 05:18:24;;;;;;;11.90;1.92;;;;;;;;;;5072634;28;20048;-79
2023/03/28 05:20:51;;;;;;;7.15;2.13;;;;;;;;;;5071302;28;20051;-79
2023/03/28 05:23:18;;;;;;;9.20;1.95;;;;;;;;;;5071112;28;20045;-79
2023/03/28 05:25:52;;;;;;;18.25;1.65;;;;;;;;;;5071084;28;20132;-79
2023/03/28 05:28:20;;;;;;;6.38;1.40;;;;;;;;;;5071356;28;20139;-79
2023/03/28 05:30:47;;;;;;;9.25;1.63;;;;;;;;;;5072733;28;20482;-79
2023/03/28 05:33:14;;;;;;;8.68;1.73;;;;;;;;;;5071075;28;20075;-79
2023/03/28 05:35:42;;;;;;;8.00;1.77;;;;;;;;;;5071115;28;20055;-80
2023/03/28 05:38:09;;;;;;;8.10;2.22;;;;;;;;;;5072388;28;20060;-79
2023/03/28 05:40:36;;;;;;;11.93;1.98;;;;;;;;;;5071065;28;20136;-79
2023/03/28 05:43:03;;;;;;;7.38;1.75;;;;;;;;;;5072574;28;20628;-79
2023/03/28 05:45:31;;;;;;;14.77;2.10;;;;;;;;;;5071089;28;20123;-80
2023/03/28 05:47:58;;;;;;;6.88;1.50;;;;;;;;;;5070868;28;20055;-79
2023/03/28 05:50:25;;;;;;;13.93;2.05;;;;;;;;;;5072806;28;20453;-80
2023/03/28 05:52:53;;;;;;;11.77;1.40;;;;;;;;;;5071588;28;20135;-80
2023/03/28 05:55:20;;;;;;;8.70;1.35;;;;;;;;;;5071171;28;20055;-78
2023/03/28 05:57:47;;;;;;;7.93;1.02;;;;;;;;;;5073373;28;20058;-79
2023/03/28 06:00:15;;;;;;;6.75;1.42;;;;;;;;;;5074496;28;20055;-79
2023/03/28 06:02:42;;;;;;;8.35;1.42;;;;;;;;;;5073438;28;20041;-79
2023/03/28 06:05:10;;;;;;;8.32;1.45;;;;;;;;;;5072791;28;20075;-80
2023/03/28 06:07:38;;;;;;;10.55;2.03;;;;;;;;;;5071895;28;20045;-80
2023/03/28 06:10:10;;;;;;;8.68;2.20;;;;;;;;;;5071493;28;20102;-78
2023/03/28 06:12:37;;;;;;;11.88;1.80;;;;;;;;;;5076344;28;20048;-80
2023/03/28 06:15:05;;;;;;;6.30;1.58;;;;;;;;;;5075452;28;20139;-79
2023/03/28 06:17:32;;;;;;;15.32;1.83;;;;;;;;;;5075050;28;20094;-80
2023/03/28 06:19:59;;;;;;;8.45;2.60;;;;;;;;;;5073641;28;20098;-79
2023/03/28 06:22:27;;;;;;;11.25;2.30;;;;;;;;;;5071667;28;20049;-79
2023/03/28 06:24:54;;;;;;;9.23;2.00;;;;;;;;;;5071288;28;20045;-79
2023/03/28 06:27:21;;;;;;;15.25;1.77;;;;;;;;;;5074048;28;20494;-79
2023/03/28 06:29:48;;;;;;;8.07;1.88;;;;;;;;;;5074718;28;20044;-79
2023/03/28 06:32:17;;;;;;;6.45;1.23;;;;;;;;;;5076224;28;20052;-79
2023/03/28 06:34:44;;;;;;;16.70;6.25;;;;;;;;;;5075601;28;20414;-79
2023/03/28 06:37:11;;;;;;;10.15;1.77;;;;;;;;;;5074652;28;20426;-79
2023/03/28 06:39:38;;;;;;;9.82;2.15;;;;;;;;;;5074891;28;20131;-79
2023/03/28 06:42:05;;;;;;;17.70;2.72;;;;;;;;;;5075954;28;20128;-79
2023/03/28 06:44:33;;;;;;;8.05;1.23;;;;;;;;;;5075477;28;20127;-79
2023/03/28 06:47:00;;;;;;;10.95;6.30;;;;;;;;;;5074442;28;20049;-79
2023/03/28 06:49:27;;;;;;;12.75;3.85;;;;;;;;;;5075165;28;20478;-79
2023/03/28 06:51:54;;;;;;;5.95;1.48;;;;;;;;;;5074857;28;20135;-79
2023/03/28 06:54:21;;;;;;;7.40;1.48;;;;;;;;;;5075535;28;20053;-79
2023/03/28 06:56:48;;;;;;;11.43;1.80;;;;;;;;;;5076368;28;20135;-79
2023/03/28 06:59:16;;;;;;;10.40;1.23;;;;;;;;;;5074839;28;20044;-79
2023/03/28 07:01:43;;;;;;;5.18;1.67;;;;;;;;;;5074451;28;20049;-79
2023/03/28 07:04:10;;;;;;;7.45;1.40;;;;;;;;;;5073794;28;20136;-78
2023/03/28 07:06:37;;;;;;;7.82;1.60;;;;;;;;;;5074022;28;20131;-79
2023/03/28 07:09:04;;;;;;;10.45;2.58;;;;;;;;;;5074501;28;20509;-78
2023/03/28 07:11:32;;;;;;;12.40;1.70;;;;;;;;;;5075284;28;20080;-79
2023/03/28 07:14:00;;;;;;;9.48;1.40;;;;;;;;;;5075537;28;20048;-78
2023/03/28 07:16:27;;;;;;;9.02;1.77;;;;;;;;;;5074717;28;20495;-78
2023/03/28 07:18:54;;;;;;;7.47;1.70;;;;;;;;;;5074295;28;20044;-78
2023/03/28 07:21:21;;;;;;;8.23;1.80;;;;;;;;;;5074980;28;20084;-79
2023/03/28 07:23:48;;;;;;;6.45;1.20;;;;;;;;;;5074455;28;20132;-79
2023/03/28 07:26:16;;;;;;;8.60;1.58;;;;;;;;;;5074323;28;20049;-79
2023/03/28 07:28:43;;;;;;;6.57;1.27;;;;;;;;;;5075533;28;20135;-79
2023/03/28 07:31:10;;;;;;;8.63;1.88;;;;;;;;;;5074242;28;20062;-79
2023/03/28 07:33:38;;;;;;;9.93;1.40;;;;;;;;;;5074077;28;20495;-79
2023/03/28 07:36:13;;;;;;;18.23;2.03;;;;;;;;;;5074048;28;20503;-80
2023/03/28 07:38:41;;;;;;;14.82;2.00;;;;;;;;;;5074702;28;20083;-79
2023/03/28 07:41:08;;;;;;;12.20;1.60;;;;;;;;;;5073348;28;20052;-79
2023/03/28 07:43:37;;;;;;;10.63;1.75;;;;;;;;;;5074280;28;20079;-79
2023/03/28 07:46:06;;;;;;;11.57;1.75;;;;;;;;;;5073771;28;20055;-79
2023/03/28 07:48:34;;;;;;;9.45;2.00;;;;;;;;;;5074740;28;20411;-79
2023/03/28 07:51:02;;;;;;;9.07;1.30;;;;;;;;;;5074375;28;20566;-79
2023/03/28 07:53:29;;;;;;;9.15;1.73;;;;;;;;;;5073599;28;20060;-80
2023/03/28 07:55:57;;;;;;;9.70;1.60;;;;;;;;;;5074493;28;20057;-79
2023/03/28 07:58:24;;;;;;;7.95;1.30;;;;;;;;;;5073440;28;20132;-78
2023/03/28 08:00:51;;;;;;;12.18;1.60;;;;;;;;;;5073397;28;20136;-78
2023/03/28 08:03:18;;;;;;;12.10;2.50;;;;;;;;;;5075082;28;20485;-79
2023/03/28 08:05:50;;;;;;;10.60;1.42;;;;;;;;;;5073732;28;20084;-79
2023/03/28 08:08:19;;;;;;;7.03;1.70;;;;;;;;;;5074892;28;20044;-80
2023/03/28 08:10:50;;;;;;;9.60;1.80;;;;;;;;;;5073391;28;20051;-78
2023/03/28 08:13:19;;;;;;;11.35;2.00;;;;;;;;;;5074391;28;20132;-78
2023/03/28 08:15:50;;;;;;;10.23;1.70;;;;;;;;;;5073666;28;20075;-79
2023/03/28 08:18:22;;;;;;;18.23;2.03;;;;;;;;;;5073272;28;20048;-79
2023/03/28 08:20:50;;;;;;;6.00;1.70;;;;;;;;;;5073682;28;20048;-79
2023/03/28 08:23:17;;;;;;;8.75;2.13;;;;;;;;;;5073707;28;20505;-78
2023/03/28 08:25:46;;;;;;;8.48;1.52;;;;;;;;;;5072173;28;20507;-78
2023/03/28 08:28:14;;;;;;;11.80;1.75;;;;;;;;;;5072404;28;20041;-79
2023/03/28 08:30:41;;;;;;;11.48;1.73;;;;;;;;;;5072637;28;20487;-80
2023/03/28 08:33:09;;;;;;;20.00;1.85;;;;;;;;;;5072112;28;20139;-80
2023/03/28 08:35:37;;;;;;;17.25;1.90;;;;;;;;;;5073651;28;20102;-78
2023/03/28 08:38:05;;;;;;;12.20;2.08;;;;;;;;;;5072950;28;20051;-79
2023/03/28 08:40:35;;;;;;;9.38;1.75;;;;;;;;;;5071899;28;20055;-79
2023/03/28 08:43:19;;;;;;;18.02;3.30;;;;;;;;;;5073101;28;20044;-79
2023/03/28 08:45:46;;;;;;;;;;;;;;;;;;5073600;28;20044;-78
2023/03/28 08:48:17;;;;;;;3.58;1.10;;;;;;;;;;5073045;28;19921;-79
2023/03/28 08:50:46;;;;;;;7.13;1.50;;;;;;;;;;5072416;28;20048;-78
2023/03/28 08:53:17;;;;;;;6.95;1.30;;;;;;;;;;5071665;28;20083;-79
2023/03/28 08:55:46;;;;;;;6.03;1.48;;;;;;;;;;5071356;28;20063;-80
2023/03/28 08:58:18;;;;;;;9.50;1.50;;;;;;;;;;5072055;28;20045;-79
2023/03/28 09:00:45;;;;;;;10.80;1.67;;;;;;;;;;5072898;28;20044;-78
2023/03/28 09:03:14;;;;;;;6.03;1.83;;;;;;;;;;5071178;28;20546;-79
2023/03/28 09:05:47;;;;;;;14.98;2.03;;;;;;;;;;5072787;28;20094;-79
2023/03/28 09:08:20;;;;;;;9.07;1.30;;;;;;;;;;5071479;28;20411;-79
2023/03/28 09:10:59;;;;;;;6.50;1.20;;;;;;;;;;5071547;28;20044;-79
2023/03/28 09:13:51;;;;;;;7.93;1.35;;;;;;;;;;5072443;28;20102;-79
2023/03/28 09:16:27;;;;;;;3.70;0.95;;;;;;;;;;5072675;28;20495;-80
2023/03/28 09:19:20;;;;;;;6.80;1.23;;;;;;;;;;5071204;28;20514;-79
2023/03/28 09:21:47;;;;;;;5.25;1.42;;;;;;;;;;5071828;28;20514;-80
2023/03/28 09:24:27;;;;;;;6.38;1.30;;;;;;;;;;5072320;28;20481;-79
2023/03/28 09:27:03;;;;;;;9.25;1.50;;;;;;;;;;5071008;28;20649;-80
2023/03/28 09:29:32;;;;;;;6.82;1.05;;;;;;;;;;5071293;28;20144;-81
2023/03/28 09:32:02;;;;;;;9.13;1.70;;;;;;;;;;5071079;28;20506;-81
2023/03/28 09:34:37;;;;;;;10.65;1.75;;;;;;;;;;5070797;28;20060;-79
2023/03/28 09:37:16;;;;;;;7.63;1.33;;;;;;;;;;5072382;28;20079;-80
2023/03/28 09:39:53;;;;;;;6.57;1.30;;;;;;;;;;5072516;28;20068;-81
2023/03/28 09:42:30;;;;;;;7.60;1.48;;;;;;;;;;5072228;28;20045;-81
2023/03/28 09:45:24;;;;;;;21.02;2.35;;;;;;;;;;5071866;28;20495;-80
2023/03/28 09:47:52;;;;;;;9.95;1.35;;;;;;;;;;5072214;28;20094;-80
2023/03/28 09:50:20;;;;;;;10.13;2.13;;;;;;;;;;5071421;28;20041;-81
2023/03/28 09:52:50;;;;;;;5.57;1.10;;;;;;;;;;5070936;28;20064;-80
2023/03/28 09:55:20;;;;;;;15.07;1.80;;;;;;;;;;5070660;28;20552;-81
2023/03/28 09:58:01;;;;;;;3.10;1.10;;;;;;;;;;5070973;28;20055;-80
2023/03/28 10:00:28;;;;;;;5.03;1.08;;;;;;;;;;5072827;28;20044;-81
2023/03/28 10:02:56;;;;;;;3.42;1.10;;;;;;;;;;5076883;28;20132;-81
2023/03/28 10:05:37;;;;;;;7.15;1.23;;;;;;;;;;5074867;28;20494;-81
2023/03/28 10:08:25;;;;;;;9.40;1.73;;;;;;;;;;5076107;28;20082;-81
2023/03/28 10:10:58;;;;;;;6.70;1.20;;;;;;;;;;5075947;28;20072;-81
2023/03/28 10:13:26;;;;;;;;;;;;;;;;;;5075810;28;20517;-81
2023/03/28 10:15:56;;;;;;;5.45;1.40;;;;;;;;;;5074243;28;19920;-82
2023/03/28 10:18:27;;;;;;;10.95;1.70;;;;;;;;;;5075234;28;20052;-80
2023/03/28 10:20:55;;;;;;;5.07;1.08;;;;;;;;;;5074971;28;20044;-81
2023/03/28 10:23:23;;;;;;;1.88;0.82;;;;;;;;;;5074560;28;20517;-82
2023/03/28 10:25:52;;;;;;;4.63;0.95;;;;;;;;;;5075195;28;20048;-81
2023/03/28 10:28:27;;;;;;;7.35;1.08;;;;;;;;;;5076066;28;20048;-81
2023/03/28 10:30:56;;;;;;;4.95;1.05;;;;;;;;;;5075865;28;20045;-81
2023/03/28 10:33:25;;;;;;;4.57;1.20;;;;;;;;;;5075898;28;20053;-82
2023/03/28 10:35:57;;;;;;;6.40;1.15;;;;;;;;;;5075550;28;20048;-82
2023/03/28 10:38:51;;;;;;;13.63;1.40;;;;;;;;;;5075725;28;20136;-82
2023/03/28 10:41:19;;;;;;;6.32;0.75;;;;;;;;;;5073345;28;20496;-80
2023/03/28 10:43:49;;;;;;;4.68;1.17;;;;;;;;;;5074911;28;20132;-80
2023/03/28 10:46:21;;;;;;;4.95;0.90;;;;;;;;;;5075513;28;20058;-80
2023/03/28 10:48:50;;;;;;;6.18;1.10;;;;;;;;;;5075588;28;20442;-81
2023/03/28 10:51:21;;;;;;;2.85;0.75;;;;;;;;;;5075461;28;20044;-81
2023/03/28 10:53:55;;;;;;;6.47;0.90;;;;;;;;;;5074850;28;20067;-82
2023/03/28 10:56:25;;;;;;;5.03;0.88;;;;;;;;;;5074058;28;20140;-81
2023/03/28 10:59:16;;;;;;;2.90;0.73;;;;;;;;;;5074314;28;20070;-80
2023/03/28 11:02:02;;;;;;;4.18;1.20;;;;;;;;;;5046890;28;20132;-79
2023/03/28 11:05:01;;;;;;;3.05;0.70;;;;;;;;;;5074576;28;20045;-81
2023/03/28 11:08:01;;;;;;;2.13;1.08;;;;;;;;;;5057645;28;20131;-81
2023/03/28 11:10:31;;;;;;;9.68;1.42;;;;;;;;;;5056644;28;20476;-81
2023/03/28 11:13:17;;;;;;;10.23;1.83;;;;;;;;;;5077494;28;20136;-83
2023/03/28 11:15:58;;;;;;;6.28;0.80;;;;;;;;;;5076856;28;20526;-82
2023/03/28 11:18:29;;;;;;;3.65;0.70;;;;;;;;;;5077912;28;20420;-83
2023/03/28 11:21:15;;;;;;;6.13;0.98;;;;;;;;;;5077555;28;20107;-82
2023/03/28 11:23:47;;;;;;;3.40;0.88;;;;;;;;;;5079134;28;20044;-82
2023/03/28 11:26:27;;;;;;;3.40;0.83;;;;;;;;;;5080149;28;20100;-82
2023/03/28 11:29:03;;;;;;;3.80;0.98;;;;;;;;;;5077267;28;20048;-82
2023/03/28 11:31:36;;;;;;;3.08;0.93;;;;;;;;;;5078310;28;20593;-82
2023/03/28 11:34:33;;;;;;;5.57;0.90;;;;;;;;;;5076811;28;20063;-82
2023/03/28 11:37:00;;;;;;;5.53;0.70;;;;;;;;;;5063095;28;20493;-82
2023/03/28 11:39:33;;;;;;;3.42;0.80;;;;;;;;;;5077101;28;20579;-82
2023/03/28 11:42:02;;;;;;;5.38;1.20;;;;;;;;;;5076646;28;20080;-81
2023/03/28 11:44:33;;;;;;;2.15;0.65;;;;;;;;;;5075294;28;20492;-82
2023/03/28 11:47:20;;;;;;;6.20;1.58;;;;;;;;;;5075232;28;20140;-82
2023/03/28 11:49:51;;;;;;;4.35;0.95;;;;;;;;;;5074592;28;20118;-81
2023/03/28 11:52:30;;;;;;;5.28;1.30;;;;;;;;;;5076998;28;20052;-82
2023/03/28 11:55:00;;;;;;;2.08;0.70;;;;;;;;;;5074067;28;20488;-82
2023/03/28 11:57:32;;;;;;;4.10;1.08;;;;;;;;;;5074301;28;20566;-82
2023/03/28 12:00:18;;;;;;;3.42;0.93;;;;;;;;;;5073872;28;20075;-81
2023/03/28 12:03:10;;;;;;;0.77;0.40;;;;;;;;;;5055425;28;20045;-81
2023/03/28 12:05:52;;;;;;;5.35;0.68;;;;;;;;;;5054166;28;20053;-82
2023/03/28 12:08:37;;;;;;;2.15;0.77;;;;;;;;;;5053601;28;20056;-81
2023/03/28 12:11:06;;;;;;;2.75;0.70;;;;;;;;;;5056041;28;20127;-81
2023/03/28 12:13:41;;;;;;;2.00;0.73;;;;;;;;;;5053411;28;20136;-82
2023/03/28 12:16:16;;;;;;;3.67;0.80;;;;;;;;;;5053735;28;20092;-82
2023/03/28 12:18:57;;;;;;;4.30;1.00;;;;;;;;;;5053513;28;20059;-81
2023/03/28 12:21:34;;;;;;;3.72;0.95;;;;;;;;;;5053015;28;20063;-81
2023/03/28 12:24:05;;;;;;;6.40;1.20;;;;;;;;;;5052543;28;20103;-82
2023/03/28 12:26:41;;;;;;;3.70;0.70;;;;;;;;;;5053006;28;20514;-80
2023/03/28 12:29:16;;;;;;;4.55;0.98;;;;;;;;;;5055457;28;20447;-79
2023/03/28 12:31:47;;;;;;;3.35;0.82;;;;;;;;;;5058340;28;20059;-80
2023/03/28 12:34:23;;;;;;;5.93;1.00;;;;;;;;;;5055915;28;20107;-82
2023/03/28 12:37:02;;;;;;;11.07;1.33;;;;;;;;;;5055510;28;20092;-80
2023/03/28 12:39:33;;;;;;;6.20;1.02;;;;;;;;;;5055328;28;20238;-81
2023/03/28 12:42:06;;;;;;;2.88;1.13;;;;;;;;;;5054766;28;20057;-82
2023/03/28 12:44:42;;;;;;;14.60;1.20;;;;;;;;;;5054840;28;20055;-81
2023/03/28 12:47:14;;;;;;;11.95;1.65;;;;;;;;;;5055600;28;20076;-80
2023/03/28 12:49:42;;;;;;;12.03;1.30;;;;;;;;;;5053830;28;20045;-81
2023/03/28 12:52:15;;;;;;;5.95;1.00;;;;;;;;;;5054108;28;20051;-84
2023/03/28 12:54:42;;;;;;;;;;;;;;;;;;5055377;28;20135;-82
2023/03/28 12:57:09;;;;;;;4.53;0.90;;;;;;;;;;5057242;28;20004;-82
2023/03/28 12:59:40;;;;;;;9.85;1.20;;;;;;;;;;5056706;28;20053;-81
2023/03/28 13:02:28;;;;;;;5.25;1.08;;;;;;;;;;5057207;28;20052;-81
2023/03/28 13:05:00;;;;;;;2.33;0.80;;;;;;;;;;5056149;28;20049;-81
2023/03/28 13:07:45;;;;;;;3.70;1.20;;;;;;;;;;5058436;28;20132;-80
2023/03/28 13:10:17;;;;;;;2.85;0.80;;;;;;;;;;5054028;28;20099;-81
2023/03/28 13:12:55;;;;;;;1.65;0.80;;;;;;;;;;5053049;28;20527;-81
2023/03/28 13:15:29;;;;;;;3.88;0.80;;;;;;;;;;5054309;28;20045;-82
2023/03/28 13:18:15;;;;;;;5.00;1.00;;;;;;;;;;5052924;28;20045;-81
2023/03/28 13:20:47;;;;;;;4.53;0.85;;;;;;;;;;5054547;28;20102;-79
2023/03/28 13:23:16;;;;;;;3.10;0.95;;;;;;;;;;5053740;28;20051;-80
2023/03/28 13:25:52;;;;;;;1.02;0.80;;;;;;;;;;5052499;28;20053;-79
2023/03/28 13:28:30;;;;;;;3.65;1.10;;;;;;;;;;5053203;28;20561;-81
2023/03/28 13:31:08;;;;;;;4.07;1.10;;;;;;;;;;5052476;28;20048;-82
2023/03/28 13:33:37;;;;;;;21.85;2.53;;;;;;;;;;5056847;28;20566;-83
2023/03/28 13:36:04;;;;;;;9.75;1.60;;;;;;;;;;5059230;28;20053;-81
2023/03/28 13:38:35;;;;;;;2.78;0.88;;;;;;;;;;5061157;28;20399;-83
2023/03/28 13:41:08;;;;;;;4.95;1.27;;;;;;;;;;5059703;28;20060;-82
2023/03/28 13:43:35;;;;;;;4.80;1.48;;;;;;;;;;5059450;28;20084;-83
2023/03/28 13:46:13;;;;;;;4.00;1.10;;;;;;;;;;5059246;28;20570;-82
2023/03/28 13:48:40;;;;;;;0.93;0.75;;;;;;;;;;5059141;28;20072;-83
2023/03/28 13:51:10;;;;;;;3.60;0.70;;;;;;;;;;5058913;28;20045;-82
2023/03/28 13:53:37;;;;;;;6.55;0.95;;;;;;;;;;5058983;28;20056;-82
2023/03/28 13:56:22;;;;;;;3.28;0.98;;;;;;;;;;5090104;22;20099;-84
2023/03/28 13:58:51;;;;;;;9.30;1.15;;;;;;;;;;5078284;28;20045;-84
2023/03/28 14:01:23;;;;;;;2.80;1.02;;;;;;;;;;5079202;28;20049;-85
2023/03/28 14:03:51;;;;;;;6.10;1.15;;;;;;;;;;5078912;28;20049;-85
2023/03/28 14:06:28;;;;;;;3.55;0.90;;;;;;;;;;5078107;28;20511;-85
2023/03/28 14:08:57;;;;;;;4.90;1.17;;;;;;;;;;5079449;28;20087;-85
2023/03/28 14:11:34;;;;;;;10.23;1.60;;;;;;;;;;5079303;28;20438;-84
2023/03/28 14:14:04;;;;;;;4.70;1.08;;;;;;;;;;5080263;28;20056;-85
2023/03/28 14:16:35;;;;;;;6.60;1.08;;;;;;;;;;5080113;28;20059;-85
2023/03/28 14:19:04;;;;;;;16.60;1.50;;;;;;;;;;5080459;28;20058;-84
2023/03/28 14:21:32;;;;;;;4.53;1.05;;;;;;;;;;5099324;28;20091;-83
2023/03/28 14:24:00;;;;;;;4.63;1.42;;;;;;;;;;5094372;28;20051;-85
2023/03/28 14:26:29;;;;;;;6.20;1.48;;;;;;;;;;5095387;28;20056;-85
2023/03/28 14:28:58;;;;;;;5.57;1.35;;;;;;;;;;5081071;28;20045;-84
2023/03/28 14:31:29;;;;;;;19.58;1.40;;;;;;;;;;5079802;28;20052;-84
2023/03/28 14:33:57;;;;;;;3.88;1.38;;;;;;;;;;5082366;28;20135;-85
2023/03/28 14:36:29;;;;;;;4.38;1.00;;;;;;;;;;5077702;28;20048;-84
2023/03/28 14:39:09;;;;;;;5.72;1.38;;;;;;;;;;5077036;28;20114;-84
2023/03/28 14:41:40;;;;;;;11.48;1.40;;;;;;;;;;5076204;28;20098;-85
2023/03/28 14:44:08;;;;;;;4.78;1.38;;;;;;;;;;5076852;28;20045;-85
2023/03/28 14:46:35;;;;;;;7.90;2.13;;;;;;;;;;5076417;28;20084;-83
2023/03/28 14:49:05;;;;;;;6.68;1.90;;;;;;;;;;5077015;28;20075;-84
2023/03/28 14:51:40;;;;;;;6.03;1.75;;;;;;;;;;5078368;28;20045;-85
2023/03/28 14:54:15;;;;;;;5.65;1.17;;;;;;;;;;5077308;28;20094;-84
2023/03/28 14:56:44;;;;;;;2.60;1.00;;;;;;;;;;5076691;28;20056;-85
2023/03/28 14:59:14;;;;;;;6.60;1.33;;;;;;;;;;5076519;28;20048;-85
2023/03/28 15:01:43;;;;;;;4.10;1.00;;;;;;;;;;5078411;28;20048;-85
2023/03/28 15:04:11;;;;;;;6.88;1.23;;;;;;;;;;5077988;28;20087;-85
2023/03/28 15:06:39;;;;;;;4.32;1.13;;;;;;;;;;5075938;28;20083;-85